Time;durP1;ratioP1;P1;durP2;ratioP2;P2;SDS_P1;SDS_P2;PMS_P1;PMS_P2;Temp;Humidity;BMP_temperature;BMP_pressure;BME280_temperature;BME280_humidity;BME280_pressure;Samples;Min_cycle;Max_cycle;Signal;HPM_P1;HPM_P2
2023/10/11 00:01:03;;;;;;;;;;;;;;;-140.72;100.00;52794.69;5075211;28;20393;-71
2023/10/11 00:05:57;;;;;;;;;;;;;;;-140.72;100.00;52756.13;5065471;28;19924;-71
2023/10/11 00:08:29;;;;;;;;;;;;;;;-140.72;100.00;52825.13;5081096;28;19920;-71
2023/10/11 00:10:59;;;;;;;;;;;;;;;-140.72;100.00;52796.72;5075959;28;19978;-70
2023/10/11 00:13:26;;;;;;;;;;;;;;;-140.72;100.00;52754.09;5074598;28;20391;-70
2023/10/11 00:15:51;;;;;;;;;;;;;;;-140.72;100.00;52784.53;5076391;28;19921;-70
2023/10/11 00:18:28;;;;;;;;;;;;;;;-140.72;100.00;52770.31;5072204;28;20377;-70
2023/10/11 00:20:57;;;;;;;;;;;;;;;-140.72;100.00;52802.78;5070088;28;20053;-70
2023/10/11 00:23:26;;;;;;;;;;;;;;;-140.72;100.00;52768.28;5074659;28;20275;-70
2023/10/11 00:26:01;;;;;;;;;;;;;;;-140.72;100.00;52784.53;5075355;28;19920;-70
2023/10/11 00:28:27;;;;;;;;;;;;;;;-140.72;100.00;52741.91;5077591;28;19924;-70
2023/10/11 00:30:57;;;;;;;;;;;;;;;-140.72;100.00;52774.38;5070071;28;19974;-70
2023/10/11 00:33:23;;;;;;;;;;;;;;;-140.72;100.00;52796.72;5074984;28;20343;-70
2023/10/11 00:35:49;;;;;;;;;;;;;;;-140.72;100.00;52768.28;5072927;28;19965;-70
2023/10/11 00:38:18;;;;;;;;;;;;;;;-140.72;100.00;52778.44;5072720;28;19920;-70
2023/10/11 00:40:44;;;;;;;;;;;;;;;-140.72;100.00;52794.69;5066848;28;20368;-70
2023/10/11 00:43:12;;;;;;;;;;;;;;;-140.72;100.00;52792.66;5071802;28;19927;-71
2023/10/11 00:45:39;;;;;;;;;;;;;;;-140.72;100.00;52768.28;5067713;28;19924;-70
2023/10/11 00:48:06;;;;;;;;;;;;;;;-140.72;100.00;52792.66;5069022;28;19928;-71
2023/10/11 00:50:32;;;;;;;;;;;;;;;-140.72;100.00;52782.50;5070731;28;19920;-71
2023/10/11 00:53:00;;;;;;;;;;;;;;;-140.72;100.00;52774.38;5070493;28;19999;-70
2023/10/11 00:55:29;;;;;;;;;;;;;;;-140.72;100.00;52756.13;5068300;28;19974;-70
2023/10/11 00:57:54;;;;;;;;;;;;;;;-140.72;100.00;52790.63;5067559;28;19955;-70
2023/10/11 01:00:21;;;;;;;;;;;;;;;-140.72;100.00;52760.19;5058387;28;20522;-70
2023/10/11 01:02:48;;;;;;;;;;;;;;;-140.72;100.00;52766.25;5071600;28;20322;-70
2023/10/11 01:05:17;;;;;;;;;;;;;;;-140.72;100.00;52776.41;5074305;28;19927;-70
2023/10/11 01:07:44;;;;;;;;;;;;;;;-140.72;100.00;52754.09;5069704;28;19987;-71
2023/10/11 01:10:10;;;;;;;;;;;;;;;-140.72;100.00;52745.97;5073304;28;19942;-72
2023/10/11 01:12:35;;;;;;;;;;;;;;;-140.72;100.00;52768.28;5075369;28;20364;-71
2023/10/11 01:15:01;;;;;;;;;;;;;;;-140.72;100.00;52772.34;5061095;28;19924;-70
2023/10/11 01:17:26;;;;;;;;;;;;;;;-140.72;100.00;52770.31;5056197;28;19925;-70
2023/10/11 01:19:52;;;;;;;;;;;;;;;-140.72;100.00;52752.06;5065425;28;20340;-70
2023/10/11 01:22:18;;;;;;;;;;;;;;;-140.72;100.00;52780.47;5072878;28;19920;-70
2023/10/11 01:24:44;;;;;;;;;;;;;;;-140.72;100.00;52790.63;5077371;28;19920;-70
2023/10/11 01:27:13;;;;;;;;;;;;;;;-140.72;100.00;52780.47;5075577;28;19921;-70
2023/10/11 01:29:39;;;;;;;;;;;;;;;-140.72;100.00;52754.09;5081977;28;20279;-70
2023/10/11 01:32:04;;;;;;;;;;;;;;;-140.72;100.00;52796.72;5069178;28;19921;-70
2023/10/11 01:34:32;;;;;;;;;;;;;;;-140.72;100.00;52786.56;5071511;28;19921;-70
2023/10/11 01:36:57;;;;;;;;;;;;;;;-140.72;100.00;52812.94;5075473;28;19920;-70
2023/10/11 01:39:22;;;;;;;;;;;;;;;-140.72;100.00;52776.41;5071361;28;19921;-70
2023/10/11 01:41:49;;;;;;;;;;;;;;;-140.72;100.00;52796.72;5076728;28;20369;-70
2023/10/11 01:44:14;;;;;;;;;;;;;;;-140.72;100.00;52780.47;5074676;28;19916;-70
2023/10/11 01:46:40;;;;;;;;;;;;;;;-140.72;100.00;52784.53;5084979;28;19916;-70
2023/10/11 01:49:09;;;;;;;;;;;;;;;-140.72;100.00;52804.81;5076066;28;19952;-69
2023/10/11 01:51:46;;;;;;;;;;;;;;;-140.72;100.00;52800.75;5086037;28;20003;-69
2023/10/11 01:54:11;;;;;;;;;;;;;;;-140.72;100.00;52758.16;5076731;28;19927;-70
2023/10/11 01:56:37;;;;;;;;;;;;;;;-140.72;100.00;52782.50;5076157;28;20358;-69
2023/10/11 01:59:04;;;;;;;;;;;;;;;-140.72;100.00;52772.34;5074586;28;20418;-69
2023/10/11 02:01:43;;;;;;;;;;;;;;;-140.72;100.00;52774.38;5076897;28;19916;-70
2023/10/11 02:04:17;;;;;;;;;;;;;;;-140.72;100.00;52752.06;5075626;28;20298;-69
2023/10/11 02:06:43;;;;;;;;;;;;;;;-140.72;100.00;52774.38;5078209;28;19916;-70
2023/10/11 02:09:11;;;;;;;;;;;;;;;-140.72;100.00;52808.88;5076298;28;20421;-69
2023/10/11 02:11:41;;;;;;;;;;;;;;;-140.72;100.00;52808.88;5090863;28;19920;-70
2023/10/11 02:14:07;;;;;;;;;;;;;;;-140.72;100.00;52772.34;5070564;28;19959;-70
2023/10/11 02:16:32;;;;;;;;;;;;;;;-140.72;100.00;52841.34;5071774;28;19961;-69
2023/10/11 02:19:00;;;;;;;;;;;;;;;-140.72;100.00;52808.88;5073091;28;20351;-69
2023/10/11 02:21:26;;;;;;;;;;;;;;;-140.72;100.00;52780.47;5089121;28;19973;-69
2023/10/11 02:23:51;;;;;;;;;;;;;;;-140.72;100.00;52812.94;5076056;28;20016;-69
2023/10/11 02:26:16;;;;;;;;;;;;;;;-140.72;100.00;52825.13;5077566;28;19916;-69
2023/10/11 02:28:44;;;;;;;;;;;;;;;-140.72;100.00;52800.75;5080337;28;19917;-69
2023/10/11 02:31:13;;;;;;;;;;;;;;;-140.72;100.00;52796.72;5065236;28;19924;-69
2023/10/11 02:33:39;;;;;;;;;;;;;;;-140.72;100.00;52847.44;5072381;28;19967;-69
2023/10/11 02:36:17;;;;;;;;;;;;;;;-140.72;100.00;52756.13;5078695;28;20420;-69
2023/10/11 02:38:47;;;;;;;;;;;;;;;-140.72;100.00;52792.66;5075697;28;19920;-69
2023/10/11 02:41:24;;;;;;;;;;;;;;;-140.72;100.00;52790.63;5074682;28;20295;-69
2023/10/11 02:43:50;;;;;;;;;;;;;;;-140.72;100.00;52812.94;5067057;28;19917;-69
2023/10/11 02:46:15;;;;;;;;;;;;;;;-140.72;100.00;52806.84;5068510;28;19971;-69
2023/10/11 02:48:46;;;;;;;;;;;;;;;-140.72;100.00;52780.47;5070635;28;19932;-69
2023/10/11 02:51:13;;;;;;;;;;;;;;;-140.72;100.00;52774.38;5072880;28;19916;-69
2023/10/11 02:53:38;;;;;;;;;;;;;;;-140.72;100.00;52817.00;5076744;28;20016;-69
2023/10/11 02:56:05;;;;;;;;;;;;;;;-140.72;100.00;52800.75;5075091;28;20426;-69
2023/10/11 02:58:30;;;;;;;;;;;;;;;-140.72;100.00;52774.38;5069638;28;19971;-70
2023/10/11 03:01:14;;;;;;;;;;;;;;;-140.72;100.00;52786.56;5075892;28;19955;-69
2023/10/11 03:03:41;;;;;;;;;;;;;;;-140.72;100.00;52784.53;5074572;28;19921;-69
2023/10/11 03:06:08;;;;;;;;;;;;;;;-140.72;100.00;52778.44;5071297;28;20022;-69
2023/10/11 03:08:33;;;;;;;;;;;;;;;-140.72;100.00;52764.25;5075351;28;19970;-69
2023/10/11 03:10:59;;;;;;;;;;;;;;;-140.72;100.00;52845.41;5075478;28;19920;-69
2023/10/11 03:13:26;;;;;;;;;;;;;;;-140.72;100.00;52819.03;5073425;28;19917;-69
2023/10/11 03:15:57;;;;;;;;;;;;;;;-140.72;100.00;52808.88;5068846;28;19917;-69
2023/10/11 03:18:25;;;;;;;;;;;;;;;-140.72;100.00;52800.75;5072720;28;20287;-69
2023/10/11 03:20:51;;;;;;;;;;;;;;;-140.72;100.00;52798.72;5075902;28;19939;-69
2023/10/11 03:23:20;;;;;;;;;;;;;;;-140.72;100.00;52804.81;5074877;28;20393;-69
2023/10/11 03:25:49;;;;;;;;;;;;;;;-140.72;100.00;52804.81;5075272;28;20366;-69
2023/10/11 03:28:15;;;;;;;;;;;;;;;-140.72;100.00;52788.59;5087438;28;19917;-69
2023/10/11 03:30:40;;;;;;;;;;;;;;;-140.72;100.00;52792.66;5074301;28;19916;-69
2023/10/11 03:33:07;;;;;;;;;;;;;;;-140.72;100.00;52792.66;5075380;28;19964;-69
2023/10/11 03:35:36;;;;;;;;;;;;;;;-140.72;100.00;52841.34;5073797;28;19916;-70
2023/10/11 03:38:02;;;;;;;;;;;;;;;-140.72;100.00;52845.41;5075831;28;19916;-69
2023/10/11 03:40:34;;;;;;;;;;;;;;;-140.72;100.00;52798.72;5074189;28;19923;-69
2023/10/11 03:43:11;;;;;;;;;;;;;;;-140.72;100.00;52796.72;5074838;28;19920;-69
2023/10/11 03:45:36;;;;;;;;;;;;;;;-140.72;100.00;52768.28;5062653;28;19927;-69
2023/10/11 03:48:09;;;;;;;;;;;;;;;-140.72;100.00;52837.28;5075174;28;19920;-69
2023/10/11 03:50:34;;;;;;;;;;;;;;;-140.72;100.00;52808.88;5073707;28;19921;-70
2023/10/11 03:53:13;;;;;;;;;;;;;;;-140.72;100.00;52786.56;5080370;28;19923;-70
2023/10/11 03:55:47;;;;;;;;;;;;;;;-140.72;100.00;52792.66;5069965;28;19925;-70
2023/10/11 04:01:23;;;;;;;;;;;;;;;-140.72;100.00;52790.63;5076894;28;19921;-69
2023/10/11 04:03:49;;;;;;;;;;;;;;;-140.72;100.00;52798.72;5074985;28;20573;-69
2023/10/11 04:06:14;;;;;;;;;;;;;;;-140.72;100.00;52829.19;5076538;28;19983;-69
2023/10/11 04:08:41;;;;;;;;;;;;;;;-140.72;100.00;52817.00;5074496;28;20014;-70
2023/10/11 04:11:14;;;;;;;;;;;;;;;-140.72;100.00;52790.63;5069096;28;19956;-69
2023/10/11 04:13:44;;;;;;;;;;;;;;;-140.72;100.00;52817.00;5074923;28;19917;-69
2023/10/11 04:16:10;;;;;;;;;;;;;;;-140.72;100.00;52782.50;5082473;28;20002;-70
2023/10/11 04:18:37;;;;;;;;;;;;;;;-140.72;100.00;52806.84;5077552;28;19981;-73
2023/10/11 04:23:35;;;;;;;;;;;;;;;-140.72;100.00;52784.53;5078683;28;19916;-73
2023/10/11 04:26:07;;;;;;;;;;;;;;;-140.72;100.00;52788.59;5079336;28;19924;-73
2023/10/11 04:28:32;;;;;;;;;;;;;;;-140.72;100.00;52808.88;5061806;28;19916;-75
2023/10/11 04:31:28;;;;;;;;;;;;;;;-140.72;100.00;52800.75;5074458;28;19924;-76
2023/10/11 04:33:49;;;;;;;;;;;;;;;-140.72;100.00;52817.00;5067237;28;19945;-74
2023/10/11 04:36:20;;;;;;;;;;;;;;;-140.72;100.00;52780.47;5062424;28;19995;-74
2023/10/11 04:38:47;;;;;;;;;;;;;;;-140.72;100.00;52780.47;5080048;28;19924;-74
2023/10/11 04:41:16;;;;;;;;;;;;;;;-140.72;100.00;52817.00;5073804;28;20394;-73
2023/10/11 04:43:50;;;;;;;;;;;;;;;-140.72;100.00;52814.97;5069827;28;19987;-73
2023/10/11 04:46:15;;;;;;;;;;;;;;;-140.72;100.00;52800.75;5072634;28;19924;-70
2023/10/11 04:48:41;;;;;;;;;;;;;;;-140.72;100.00;52792.66;5073623;28;19955;-70
2023/10/11 04:51:37;;;;;;;;;;;;;;;-140.72;100.00;52796.72;5074675;28;19946;-71
2023/10/11 04:53:58;;;;;;;;;;;;;;;-140.72;100.00;52796.72;5074695;28;20334;-70
2023/10/11 04:59:08;;;;;;;;;;;;;;;-140.72;100.00;52812.94;5075125;28;20459;-71
2023/10/11 05:04:14;;;;;;;;;;;;;;;-140.72;100.00;52748.00;5069406;28;20287;-76
2023/10/11 05:06:40;;;;;;;;;;;;;;;-140.72;100.00;52786.56;5079425;28;19959;-76
2023/10/11 05:11:44;;;;;;;;;;;;;;;-140.72;100.00;52802.78;5081053;28;19916;-79
2023/10/11 05:16:59;;;;;;;;;;;;;;;-140.72;100.00;52780.47;5072870;28;19924;-81
2023/10/11 05:19:28;;;;;;;;;;;;;;;-140.72;100.00;52808.88;5076310;28;20031;-75
2023/10/11 05:21:53;;;;;;;;;;;;;;;-140.72;100.00;52782.50;5077142;28;20014;-72
2023/10/11 05:27:25;;;;;;;;;;;;;;;-140.72;100.00;52772.34;5072560;28;19990;-69
2023/10/11 05:30:28;;;;;;;;;;;;;;;-140.72;100.00;52819.03;5072477;28;19927;-70
2023/10/11 05:33:15;;;;;;;;;;;;;;;-140.72;100.00;52774.38;5064365;28;20383;-69
2023/10/11 05:52:07;;;;;;;;;;;;;;;-140.72;100.00;52778.44;5075569;28;19923;-75
2023/10/11 05:54:34;;;;;;;;;;;;;;;-140.72;100.00;52808.88;5080022;28;20275;-74
2023/10/11 05:57:03;;;;;;;;;;;;;;;-140.72;100.00;52825.13;5072957;28;19920;-74
2023/10/11 05:59:31;;;;;;;;;;;;;;;-140.72;100.00;52804.81;5076023;28;19943;-73
2023/10/11 06:01:57;;;;;;;;;;;;;;;-140.72;100.00;52802.78;5074660;28;19927;-70
2023/10/11 06:04:23;;;;;;;;;;;;;;;-140.72;100.00;52792.66;5075694;28;19917;-71
2023/10/11 06:06:52;;;;;;;;;;;;;;;-140.72;100.00;52814.97;5078168;28;19916;-70
2023/10/11 06:09:17;;;;;;;;;;;;;;;-140.72;100.00;52796.72;5080677;28;19920;-71
2023/10/11 06:11:48;;;;;;;;;;;;;;;-140.72;100.00;52808.88;5087020;28;20378;-70
2023/10/11 06:14:16;;;;;;;;;;;;;;;-140.72;100.00;52790.63;5073172;28;20345;-70
2023/10/11 06:16:43;;;;;;;;;;;;;;;-140.72;100.00;52800.75;5074854;28;19916;-70
2023/10/11 06:19:26;;;;;;;;;;;;;;;-140.72;100.00;52780.47;5073200;28;20247;-70
2023/10/11 06:22:09;;;;;;;;;;;;;;;-140.72;100.00;52825.13;5075583;28;19916;-70
2023/10/11 06:24:36;;;;;;;;;;;;;;;-140.72;100.00;52792.66;5074826;28;19917;-70
2023/10/11 06:28:09;;;;;;;;;;;;;;;-140.72;100.00;52764.25;5074806;28;20003;-70
2023/10/11 06:30:06;;;;;;;;;;;;;;;-140.72;100.00;52804.81;5074942;28;19920;-70
2023/10/11 06:32:31;;;;;;;;;;;;;;;-140.72;100.00;52798.72;5067741;28;19916;-71
2023/10/11 06:34:56;;;;;;;;;;;;;;;-140.72;100.00;52772.34;5073495;28;19927;-71
2023/10/11 06:37:24;;;;;;;;;;;;;;;-140.72;100.00;52784.53;5075482;28;19927;-70
2023/10/11 06:42:23;;;;;;;;;;;;;;;-140.72;100.00;52782.50;5076057;28;19916;-69
2023/10/11 06:44:52;;;;;;;;;;;;;;;-140.72;100.00;52798.72;5071260;28;20351;-71
2023/10/11 06:47:20;;;;;;;;;;;;;;;-140.72;100.00;52778.44;5070252;28;19924;-69
2023/10/11 06:50:10;;;;;;;;;;;;;;;-140.72;100.00;52717.56;5004276;28;1768810;-70
2023/10/11 06:52:42;;;;;;;;;;;;;;;-140.72;100.00;52814.97;5072106;28;20004;-70
2023/10/11 06:55:13;;;;;;;;;;;;;;;-140.72;100.00;52750.03;5069362;28;20434;-70
2023/10/11 06:57:39;;;;;;;;;;;;;;;-140.72;100.00;52796.72;5076305;28;19916;-69
2023/10/11 07:00:12;;;;;;;;;;;;;;;-140.72;100.00;52812.94;5087153;28;20023;-70
2023/10/11 07:02:39;;;;;;;;;;;;;;;-140.72;100.00;52788.59;5076556;28;19912;-70
2023/10/11 07:05:14;;;;;;;;;;;;;;;-140.72;100.00;52776.41;5074518;28;19922;-70
2023/10/11 07:07:39;;;;;;;;;;;;;;;-140.72;100.00;52729.75;5074972;28;19913;-70
2023/10/11 07:10:28;;;;;;;;;;;;;;;-140.72;100.00;52776.41;5075531;28;19962;-70
2023/10/11 07:13:03;;;;;;;;;;;;;;;-140.72;100.00;52768.28;5075039;28;20402;-70
2023/10/11 07:15:31;;;;;;;;;;;;;;;-140.72;100.00;52778.44;5075225;28;20577;-70
2023/10/11 07:17:56;;;;;;;;;;;;;;;-140.72;100.00;52780.47;5074192;28;19924;-70
2023/10/11 07:23:05;;;;;;;;;;;;;;;-140.72;100.00;52764.25;5075158;28;19923;-70
2023/10/11 07:25:45;;;;;;;;;;;;;;;-140.72;100.00;52731.75;5077312;28;19924;-70
2023/10/11 07:28:11;;;;;;;;;;;;;;;-140.72;100.00;52758.16;5090054;28;19991;-70
2023/10/11 07:30:37;;;;;;;;;;;;;;;-140.72;100.00;52760.19;5074549;28;19921;-70
2023/10/11 07:33:04;;;;;;;;;;;;;;;-140.72;100.00;52750.03;5086791;28;19940;-69
2023/10/11 07:35:29;;;;;;;;;;;;;;;-140.72;100.00;52794.69;5075143;28;19920;-70
2023/10/11 07:37:56;;;;;;;;;;;;;;;-140.72;100.00;52780.47;5087131;28;19916;-70
2023/10/11 07:40:33;;;;;;;;;;;;;;;-140.72;100.00;52735.81;5083824;28;20297;-70
2023/10/11 07:42:58;;;;;;;;;;;;;;;-140.72;100.00;52735.81;5072315;28;19923;-69
2023/10/11 07:45:26;;;;;;;;;;;;;;;-140.72;100.00;52735.81;5065928;28;20297;-70
2023/10/11 07:47:52;;;;;;;;;;;;;;;-140.72;100.00;52784.53;5073718;28;20402;-70
2023/10/11 07:50:22;;;;;;;;;;;;;;;-140.72;100.00;52752.06;5071187;28;19921;-70
2023/10/11 07:52:48;;;;;;;;;;;;;;;-140.72;100.00;52772.34;5063961;28;19916;-70
2023/10/11 07:55:13;;;;;;;;;;;;;;;-140.72;100.00;52758.16;5074753;28;19939;-70
2023/10/11 07:57:44;;;;;;;;;;;;;;;-140.72;100.00;52762.22;5074043;28;19916;-70
2023/10/11 08:00:18;;;;;;;;;;;;;;;-140.72;100.00;52786.56;5080137;28;19924;-70
2023/10/11 08:02:55;;;;;;;;;;;;;;;-140.72;100.00;52727.72;5073327;28;20299;-70
2023/10/11 08:05:21;;;;;;;;;;;;;;;-140.72;100.00;52745.97;5062037;28;19920;-70
2023/10/11 08:07:46;;;;;;;;;;;;;;;-140.72;100.00;52770.31;5082651;28;19922;-70
2023/10/11 08:10:29;;;;;;;;;;;;;;;-140.72;100.00;52739.88;5073691;28;19985;-70
2023/10/11 08:12:57;;;;;;;;;;;;;;;-140.72;100.00;52723.66;5071490;28;20260;-71
2023/10/11 08:15:25;;;;;;;;;;;;;;;-140.72;100.00;52754.09;5074294;28;19920;-70
2023/10/11 08:17:50;;;;;;;;;;;;;;;-140.72;100.00;52727.72;5071796;28;20405;-70
2023/10/11 08:20:15;;;;;;;;;;;;;;;-140.72;100.00;52727.72;5068564;28;19975;-70
2023/10/11 08:22:41;;;;;;;;;;;;;;;-140.72;100.00;52727.72;5072786;28;20288;-70
2023/10/11 08:25:12;;;;;;;;;;;;;;;-140.72;100.00;52752.06;5070514;28;19970;-70
2023/10/11 08:27:37;;;;;;;;;;;;;;;-140.72;100.00;52729.75;5072219;28;19932;-70
2023/10/11 08:30:09;;;;;;;;;;;;;;;-140.72;100.00;52683.06;5071584;28;19916;-70
2023/10/11 08:32:38;;;;;;;;;;;;;;;-140.72;100.00;52731.75;5072632;28;19920;-70
2023/10/11 08:35:06;;;;;;;;;;;;;;;-140.72;100.00;52739.88;5062815;28;19916;-70
2023/10/11 08:37:32;;;;;;;;;;;;;;;-140.72;100.00;52723.66;5072622;28;19924;-70
2023/10/11 08:39:57;;;;;;;;;;;;;;;-140.72;100.00;52752.06;5072685;28;19917;-70
2023/10/11 08:42:30;;;;;;;;;;;;;;;-140.72;100.00;52739.88;5072576;28;19927;-70
2023/10/11 08:44:59;;;;;;;;;;;;;;;-140.72;100.00;52731.75;5072996;28;19920;-70
2023/10/11 08:47:24;;;;;;;;;;;;;;;-140.72;100.00;52695.25;5074495;28;19927;-70
2023/10/11 08:49:50;;;;;;;;;;;;;;;-140.72;100.00;52758.16;5086942;28;19924;-69
2023/10/11 08:52:22;;;;;;;;;;;;;;;-140.72;100.00;52737.84;5085812;28;19975;-69
2023/10/11 08:54:48;;;;;;;;;;;;;;;-140.72;100.00;52735.81;5079411;28;19921;-70
2023/10/11 08:57:13;;;;;;;;;;;;;;;-140.72;100.00;52721.63;5071991;28;19916;-71
2023/10/11 08:59:49;;;;;;;;;;;;;;;-140.72;100.00;52741.91;5071825;28;19917;-70
2023/10/11 09:02:17;;;;;;;;;;;;;;;-140.72;100.00;52731.75;5071753;28;19921;-70
2023/10/11 09:04:56;;;;;;;;;;;;;;;-140.72;100.00;52748.00;5072153;28;20363;-70
2023/10/11 09:07:51;;;;;;;;;;;;;;;-140.72;100.00;52723.66;5072946;28;19916;-70
2023/10/11 09:10:25;;;;;;;;;;;;;;;-140.72;100.00;52723.66;5064955;28;19927;-70
2023/10/11 09:12:56;;;;;;;;;;;;;;;-140.72;100.00;52733.78;5073709;28;20272;-70
2023/10/11 09:15:21;;;;;;;;;;;;;;;-140.72;100.00;52717.56;5072626;28;19960;-70
2023/10/11 09:17:50;;;;;;;;;;;;;;;-140.72;100.00;52735.81;5072023;28;20413;-70
2023/10/11 09:20:15;;;;;;;;;;;;;;;-140.72;100.00;52699.31;5072159;28;19917;-70
2023/10/11 09:22:47;;;;;;;;;;;;;;;-140.72;100.00;52750.03;5072025;28;19921;-70
2023/10/11 09:25:21;;;;;;;;;;;;;;;-140.72;100.00;52743.94;5072668;28;19916;-70
2023/10/11 09:27:49;;;;;;;;;;;;;;;-140.72;100.00;52695.25;5069031;28;19920;-70
2023/10/11 09:30:21;;;;;;;;;;;;;;;-140.72;100.00;52709.44;5071180;28;20431;-69
2023/10/11 09:32:49;;;;;;;;;;;;;;;-140.72;100.00;52699.31;5061549;28;19959;-70
2023/10/11 09:35:23;;;;;;;;;;;;;;;-140.72;100.00;52691.19;5071372;28;19917;-70
2023/10/11 09:37:49;;;;;;;;;;;;;;;-140.72;100.00;52748.00;5073476;28;20378;-70
2023/10/11 09:40:16;;;;;;;;;;;;;;;-140.72;100.00;52691.19;5072806;28;19916;-69
2023/10/11 09:42:43;;;;;;;;;;;;;;;-140.72;100.00;52674.94;5076961;28;20294;-70
2023/10/11 09:45:16;;;;;;;;;;;;;;;-140.72;100.00;52711.47;5075015;28;19937;-70
2023/10/11 09:47:42;;;;;;;;;;;;;;;-140.72;100.00;52725.69;5075745;28;19974;-70
2023/10/11 09:50:14;;;;;;;;;;;;;;;-140.72;100.00;52679.00;5075629;28;19924;-70
2023/10/11 09:52:45;;;;;;;;;;;;;;;-140.72;100.00;52693.22;5075783;28;20011;-70
2023/10/11 09:55:17;;;;;;;;;;;;;;;-140.72;100.00;52707.41;5074425;28;20329;-70
2023/10/11 09:57:50;;;;;;;;;;;;;;;-140.72;100.00;52679.00;5073891;28;19917;-71
2023/10/11 10:00:25;;;;;;;;;;;;;;;-140.72;100.00;52666.84;5076879;28;20018;-73
2023/10/11 10:02:51;;;;;;;;;;;;;;;-140.72;100.00;52723.66;5077590;28;19919;-71
2023/10/11 10:05:22;;;;;;;;;;;;;;;-140.72;100.00;52646.53;5075122;28;19921;-70
2023/10/11 10:07:50;;;;;;;;;;;;;;;-140.72;100.00;52687.13;5075425;28;19912;-71
2023/10/11 10:10:16;;;;;;;;;;;;;;;-140.72;100.00;52636.38;5074755;28;20090;-70
2023/10/11 10:12:43;;;;;;;;;;;;;;;-140.72;100.00;52640.44;5075666;28;19952;-70
2023/10/11 10:15:13;;;;;;;;;;;;;;;-140.72;100.00;52636.38;5075415;28;19924;-70
2023/10/11 10:17:39;;;;;;;;;;;;;;;-140.72;100.00;52638.41;5076647;28;19917;-71
2023/10/11 10:20:23;;;;;;;;;;;;;;;-140.72;100.00;52618.13;5072959;28;20015;-70
2023/10/11 10:23:21;;;;;;;;;;;;;;;-140.72;100.00;52640.44;5074678;28;19924;-70
2023/10/11 10:26:06;;;;;;;;;;;;;;;-140.72;100.00;52601.91;5074128;28;20027;-70
2023/10/11 10:28:42;;;;;;;;;;;;;;;-140.72;100.00;52618.13;5075429;28;19925;-70
2023/10/11 10:31:18;;;;;;;;;;;;;;;-140.72;100.00;52654.66;5076607;28;19956;-70
2023/10/11 10:33:52;;;;;;;;;;;;;;;-140.72;100.00;52630.31;5082579;28;19925;-70
2023/10/11 10:36:17;;;;;;;;;;;;;;;-140.72;100.00;52642.47;5085549;28;19916;-70
2023/10/11 10:38:58;;;;;;;;;;;;;;;-140.72;100.00;52622.19;5061518;28;19999;-73
2023/10/11 10:41:25;;;;;;;;;;;;;;;-140.72;100.00;52581.59;5071424;28;19970;-77
2023/10/11 10:44:11;;;;;;;;;;;;;;;-140.72;100.00;52563.34;5073700;28;20677;-77
2023/10/11 10:46:49;;;;;;;;;;;;;;;-140.72;100.00;52512.59;5068083;28;20350;-78
2023/10/11 10:49:15;;;;;;;;;;;;;;;-140.72;100.00;52549.13;5069145;28;20006;-78
2023/10/11 10:51:47;;;;;;;;;;;;;;;-140.72;100.00;52569.44;5063917;28;20390;-76
2023/10/11 10:54:17;;;;;;;;;;;;;;;-140.72;100.00;52593.78;5068592;28;20374;-80
2023/10/11 10:56:46;;;;;;;;;;;;;;;-140.72;100.00;52569.44;5078861;28;20387;-81
2023/10/11 10:59:13;;;;;;;;;;;;;;;-140.72;100.00;52605.94;5071560;28;19920;-78
2023/10/11 11:01:39;;;;;;;;;;;;;;;-140.72;100.00;52597.84;5075799;28;19920;-77
2023/10/11 11:04:08;;;;;;;;;;;;;;;-140.72;100.00;52610.00;5068009;28;19973;-77
2023/10/11 11:06:40;;;;;;;;;;;;;;;-140.72;100.00;52642.47;5075936;28;19920;-77
2023/10/11 11:09:13;;;;;;;;;;;;;;;-140.72;100.00;52597.84;5066452;28;20022;-77
2023/10/11 11:11:38;;;;;;;;;;;;;;;-140.72;100.00;52642.47;5070919;28;19921;-77
2023/10/11 11:14:15;;;;;;;;;;;;;;;-140.72;100.00;52618.13;5076314;28;19923;-78
2023/10/11 11:16:43;;;;;;;;;;;;;;;-140.72;100.00;52630.31;5075786;28;19999;-78
2023/10/11 11:19:25;;;;;;;;;;;;;;;-140.72;100.00;52610.00;5074640;28;20425;-78
2023/10/11 11:22:01;;;;;;;;;;;;;;;-140.72;100.00;52508.56;5066109;28;19970;-78
2023/10/11 11:24:34;;;;;;;;;;;;;;;-140.72;100.00;52553.19;5070597;28;19935;-77
2023/10/11 11:26:59;;;;;;;;;;;;;;;-140.72;100.00;52528.84;5069974;28;20454;-77
2023/10/11 11:29:31;;;;;;;;;;;;;;;-140.72;100.00;52480.16;5075864;28;19991;-77
2023/10/11 11:31:59;;;;;;;;;;;;;;;-140.72;100.00;52524.78;5075183;28;19983;-77
2023/10/11 11:34:27;;;;;;;;;;;;;;;-140.72;100.00;52543.03;5075133;28;19975;-78
2023/10/11 11:37:00;;;;;;;;;;;;;;;-140.72;100.00;52553.19;5062988;28;19928;-78
2023/10/11 11:39:26;;;;;;;;;;;;;;;-140.72;100.00;52581.59;5084509;28;20387;-77
2023/10/11 11:41:57;;;;;;;;;;;;;;;-140.72;100.00;52622.19;5074274;28;19921;-77
2023/10/11 11:44:22;;;;;;;;;;;;;;;-140.72;100.00;52618.13;5074522;28;19920;-77
2023/10/11 11:46:49;;;;;;;;;;;;;;;-140.72;100.00;52614.06;5072893;28;20429;-77
2023/10/11 11:49:24;;;;;;;;;;;;;;;-140.72;100.00;52618.13;5065775;28;19966;-77
2023/10/11 11:51:51;;;;;;;;;;;;;;;-140.72;100.00;52549.13;5066927;28;20436;-77
2023/10/11 11:54:18;;;;;;;;;;;;;;;-140.72;100.00;52640.44;5070624;28;19931;-77
2023/10/11 11:56:45;;;;;;;;;;;;;;;-140.72;100.00;52607.97;5063012;28;19921;-77
2023/10/11 11:59:17;;;;;;;;;;;;;;;-140.72;100.00;52567.41;5068949;28;19925;-77
2023/10/11 12:01:49;;;;;;;;;;;;;;;-140.72;100.00;52583.63;5066213;28;19932;-77
2023/10/11 12:04:23;;;;;;;;;;;;;;;-140.72;100.00;52622.19;5068132;28;19966;-77
2023/10/11 12:06:49;;;;;;;;;;;;;;;-140.72;100.00;52636.38;5067464;28;19924;-76
2023/10/11 12:09:20;;;;;;;;;;;;;;;-140.72;100.00;52612.03;5067834;28;19921;-76
2023/10/11 12:11:49;;;;;;;;;;;;;;;-140.72;100.00;52636.38;5064934;28;20019;-76
2023/10/11 12:14:15;;;;;;;;;;;;;;;-140.72;100.00;52603.94;5068637;28;19921;-76
2023/10/11 12:16:42;;;;;;;;;;;;;;;-140.72;100.00;52620.16;5068068;28;19921;-77
2023/10/11 12:19:11;;;;;;;;;;;;;;;-140.72;100.00;52624.22;5068674;28;19921;-77
2023/10/11 12:21:36;;;;;;;;;;;;;;;-140.72;100.00;52593.78;5074640;28;19924;-79
2023/10/11 12:24:10;;;;;;;;;;;;;;;-140.72;100.00;52587.69;5075101;28;20407;-78
2023/10/11 12:26:35;;;;;;;;;;;;;;;-140.72;100.00;52593.78;5072750;28;19920;-79
2023/10/11 12:29:04;;;;;;;;;;;;;;;-140.72;100.00;52583.63;5072040;28;19920;-78
2023/10/11 12:31:29;;;;;;;;;;;;;;;-140.72;100.00;52587.69;5072517;28;19960;-77
2023/10/11 12:33:54;;;;;;;;;;;;;;;-140.72;100.00;52601.91;5072595;28;19924;-76
2023/10/11 12:36:21;;;;;;;;;;;;;;;-140.72;100.00;52591.75;5071416;28;20271;-76
2023/10/11 12:38:47;;;;;;;;;;;;;;;-140.72;100.00;52585.66;5069970;28;19986;-76
2023/10/11 12:41:15;;;;;;;;;;;;;;;-140.72;100.00;52575.50;5069299;28;19920;-76
2023/10/11 12:43:40;;;;;;;;;;;;;;;-140.72;100.00;52553.19;5070944;28;19969;-76
2023/10/11 12:46:05;;;;;;;;;;;;;;;-140.72;100.00;52589.72;5064592;28;20047;-76
2023/10/11 12:48:31;;;;;;;;;;;;;;;-140.72;100.00;52520.72;5064278;28;19921;-76
2023/10/11 12:51:00;;;;;;;;;;;;;;;-140.72;100.00;52541.03;5066964;28;19936;-76
2023/10/11 12:53:29;;;;;;;;;;;;;;;-140.72;100.00;52524.78;5070886;28;19921;-76
2023/10/11 12:55:54;;;;;;;;;;;;;;;-140.72;100.00;52551.16;5069074;28;19931;-76
2023/10/11 12:58:27;;;;;;;;;;;;;;;-140.72;100.00;52524.78;5069906;28;19920;-76
2023/10/11 13:00:58;;;;;;;;;;;;;;;-140.72;100.00;52587.69;5070609;28;20373;-76
2023/10/11 13:03:29;;;;;;;;;;;;;;;-140.72;100.00;52549.13;5065783;28;20289;-76
2023/10/11 13:05:54;;;;;;;;;;;;;;;-140.72;100.00;52553.19;5068436;28;19928;-77
2023/10/11 13:08:28;;;;;;;;;;;;;;;-140.72;100.00;52565.38;5069658;28;19920;-76
2023/10/11 13:10:54;;;;;;;;;;;;;;;-140.72;100.00;52595.81;5069481;28;19927;-76
2023/10/11 13:13:20;;;;;;;;;;;;;;;-140.72;100.00;52593.78;5069297;28;19920;-77